Time;durP1;ratioP1;P1;durP2;ratioP2;P2;SDS_P1;SDS_P2;PMS_P1;PMS_P2;Temp;Humidity;BMP_temperature;BMP_pressure;BME280_temperature;BME280_humidity;BME280_pressure;Samples;Min_cycle;Max_cycle;Signal;HPM_P1;HPM_P2
2023/06/27 00:00:08;;;;;;;;;4.33;4.33;;;;;22.65;69.51;101044.38;5057370;28;45477;-73
2023/06/27 00:02:34;;;;;;;;;4.67;4.00;;;;;22.74;69.22;101054.94;5057127;28;45527;-73
2023/06/27 00:05:00;;;;;;;;;5.00;4.00;;;;;22.75;69.12;101050.50;5039090;28;45254;-74
2023/06/27 00:07:27;;;;;;;;;5.00;5.00;;;;;22.74;69.15;101038.97;5057593;28;45293;-73
2023/06/27 00:09:56;;;;;;;;;6.00;4.67;;;;;22.76;69.15;101037.16;5057517;28;45224;-74
2023/06/27 00:12:22;;;;;;;;;4.33;4.33;;;;;22.75;69.49;101030.06;5057308;28;46204;-74
2023/06/27 00:14:48;;;;;;;;;4.00;4.00;;;;;22.82;68.78;101036.22;5038934;28;45434;-74
2023/06/27 00:17:16;;;;;;;;;4.67;4.00;;;;;22.85;68.56;101030.81;5057398;28;45425;-74
2023/06/27 00:19:44;;;;;;;;;5.33;4.00;;;;;22.83;68.50;101019.31;5057289;28;45515;-73
2023/06/27 00:22:10;;;;;;;;;5.00;5.00;;;;;22.79;68.64;101021.13;5038926;28;46837;-74
2023/06/27 00:24:37;;;;;;;;;6.33;4.67;;;;;22.85;68.29;101025.50;5056972;28;45315;-73
2023/06/27 00:27:03;;;;;;;;;4.00;4.00;;;;;22.83;68.34;101029.97;5055874;28;45387;-74
2023/06/27 00:29:29;;;;;;;;;4.00;4.00;;;;;22.80;68.89;101030.88;5057165;28;45525;-74
2023/06/27 00:31:55;;;;;;;;;4.00;4.00;;;;;22.74;68.78;101019.41;5058753;28;46163;-73
2023/06/27 00:34:20;;;;;;;;;5.00;4.00;;;;;22.77;68.32;101019.38;5059199;28;45677;-73
2023/06/27 00:36:46;;;;;;;;;5.00;5.00;;;;;22.76;68.57;101015.84;5060771;28;45297;-74
2023/06/27 00:39:11;;;;;;;;;5.67;4.00;;;;;22.75;68.42;101015.88;5060733;28;45558;-73
2023/06/27 00:41:37;;;;;;;;;3.00;3.00;;;;;22.75;68.40;101013.19;5060370;28;45849;-73
2023/06/27 00:44:08;;;;;;;;;3.67;2.33;;;;;22.71;68.40;101004.38;5060441;28;45302;-74
2023/06/27 00:46:40;;;;;;;;;3.33;3.00;;;;;22.68;68.33;101006.19;5060690;28;45938;-73
2023/06/27 00:49:08;;;;;;;;;4.00;3.00;;;;;22.78;68.27;101019.38;5060441;28;45510;-73
2023/06/27 00:51:35;;;;;;;;;5.33;4.33;;;;;22.75;68.43;101018.53;5041957;28;46510;-74
2023/06/27 00:54:00;;;;;;;;;4.00;3.67;;;;;22.67;68.55;101010.63;5060259;28;45406;-73
2023/06/27 00:56:27;;;;;;;;;4.00;4.00;;;;;22.74;68.84;101011.41;5060049;28;45389;-73
2023/06/27 00:59:01;;;;;;;;;4.33;4.00;;;;;22.59;68.77;101005.41;5060417;28;45358;-73
2023/06/27 01:01:29;;;;;;;;;4.00;3.00;;;;;22.57;69.29;101009.00;5059928;28;45685;-73
2023/06/27 01:03:55;;;;;;;;;5.00;3.00;;;;;22.62;69.52;101016.03;5060180;28;45356;-73
2023/06/27 01:06:58;;;;;;;;;3.33;3.33;;;;;22.53;68.89;101018.78;5060148;28;45346;-74
2023/06/27 01:09:31;;;;;;;;;5.00;4.33;;;;;22.41;69.31;101017.16;5041952;28;45557;-74
2023/06/27 01:12:15;;;;;;;;;4.33;3.00;;;;;22.40;69.76;101012.75;5041886;28;45451;-73
2023/06/27 01:14:45;;;;;;;;;3.67;3.33;;;;;22.39;69.54;100999.44;5041736;28;45289;-73
2023/06/27 01:17:13;;;;;;;;;5.67;4.00;;;;;22.39;69.73;100999.44;5058649;28;45524;-74
2023/06/27 01:19:44;;;;;;;;;6.00;5.00;;;;;22.44;70.19;101002.91;5060077;28;45296;-73
2023/06/27 01:22:15;;;;;;;;;4.00;4.00;;;;;22.50;69.84;101001.97;5059739;28;45512;-73
2023/06/27 01:24:43;;;;;;;;;5.00;5.00;;;;;22.52;69.41;101002.81;5041647;28;45689;-73
2023/06/27 01:27:11;;;;;;;;;4.00;4.00;;;;;22.52;69.71;100985.09;5059771;28;45318;-73
2023/06/27 01:29:40;;;;;;;;;4.00;4.00;;;;;22.63;69.34;100998.25;5059750;28;45467;-73
2023/06/27 01:32:14;;;;;;;;;7.00;6.67;;;;;22.64;69.81;101000.00;5059503;28;45726;-73
2023/06/27 01:35:05;;;;;;;;;4.00;4.00;;;;;22.62;69.77;101000.06;5041484;28;45626;-73
2023/06/27 01:37:41;;;;;;;;;5.00;4.00;;;;;22.55;69.29;100985.03;5059570;28;45296;-73
2023/06/27 01:40:13;;;;;;;;;3.00;3.00;;;;;22.63;69.53;100993.81;5059578;28;45267;-73
2023/06/27 01:42:46;;;;;;;;;3.33;3.33;;;;;22.61;69.57;100981.41;5059285;28;46170;-73
2023/06/27 01:45:14;;;;;;;;;4.33;4.00;;;;;22.67;69.31;100989.31;5041255;28;45506;-73
2023/06/27 01:47:42;;;;;;;;;6.67;5.00;;;;;22.62;69.69;100989.41;5041399;28;45359;-73
2023/06/27 01:50:09;;;;;;;;;7.00;5.33;;;;;22.64;69.66;100998.25;5059535;28;45320;-73
2023/06/27 01:52:35;;;;;;;;;4.00;4.00;;;;;22.57;68.93;100977.03;5057794;28;46379;-73
2023/06/27 01:55:01;;;;;;;;;2.33;2.33;;;;;22.57;68.94;100982.38;5059217;28;45340;-73
2023/06/27 01:57:27;;;;;;;;;3.67;3.33;;;;;22.57;68.58;100991.22;5057923;28;45515;-73
2023/06/27 01:59:53;;;;;;;;;2.67;2.67;;;;;22.51;68.28;100982.44;5059730;28;45422;-73
2023/06/27 02:02:19;;;;;;;;;1.00;1.00;;;;;22.55;67.54;100985.03;5059302;28;45299;-73
2023/06/27 02:04:45;;;;;;;;;4.00;3.00;;;;;22.57;67.17;100972.59;5059190;28;45474;-73
2023/06/27 02:07:10;;;;;;;;;4.00;4.00;;;;;22.64;67.96;100986.69;5059157;28;45375;-73
2023/06/27 02:09:36;;;;;;;;;5.00;4.67;;;;;22.57;68.39;100977.03;5059086;28;45382;-73
2023/06/27 02:12:04;;;;;;;;;4.00;4.00;;;;;22.49;68.86;100969.16;5058974;28;46153;-73
2023/06/27 02:14:30;;;;;;;;;4.00;4.00;;;;;22.43;69.77;100962.09;5058988;28;45421;-73
2023/06/27 02:16:55;;;;;;;;;4.00;3.33;;;;;22.51;69.52;100980.66;5059082;28;45421;-74
2023/06/27 02:19:21;;;;;;;;;2.67;2.33;;;;;22.51;69.30;100971.78;5059454;28;45228;-73
2023/06/27 02:21:48;;;;;;;;;2.33;2.33;;;;;22.48;68.42;100979.81;5058834;28;45484;-73
2023/06/27 02:24:14;;;;;;;;;2.67;2.67;;;;;22.43;68.02;100967.44;5059077;28;45300;-73
2023/06/27 02:26:39;;;;;;;;;3.00;3.00;;;;;22.48;67.40;100971.81;5059155;28;45247;-73
2023/06/27 02:29:05;;;;;;;;;3.00;2.67;;;;;22.49;67.48;100971.81;5059013;28;45318;-73
2023/06/27 02:31:30;;;;;;;;;3.00;3.00;;;;;22.44;68.75;100965.66;5040406;28;47964;-73
2023/06/27 02:33:56;;;;;;;;;6.00;5.00;;;;;22.47;69.19;100967.41;5058583;28;45381;-74
2023/06/27 02:36:22;;;;;;;;;4.00;4.00;;;;;22.47;68.50;100960.28;5040748;28;45429;-73
2023/06/27 02:38:49;;;;;;;;;3.33;3.33;;;;;22.44;68.51;100960.31;5058909;28;45331;-74
2023/06/27 02:41:14;;;;;;;;;4.33;4.00;;;;;22.38;68.90;100958.66;5058442;28;45984;-74
2023/06/27 02:43:40;;;;;;;;;3.00;3.00;;;;;22.39;68.48;100962.19;5058663;28;45250;-74
2023/06/27 02:46:06;;;;;;;;;3.33;3.33;;;;;22.31;68.65;100948.94;5040599;28;45566;-74
2023/06/27 02:48:32;;;;;;;;;5.00;4.00;;;;;22.35;68.60;100941.81;5058780;28;45532;-74
2023/06/27 02:50:57;;;;;;;;;4.00;3.00;;;;;22.36;68.10;100957.78;5040041;28;47801;-75
2023/06/27 02:53:23;;;;;;;;;4.00;3.00;;;;;22.38;67.89;100953.31;5058427;28;45411;-75
2023/06/27 02:55:50;;;;;;;;;3.00;3.00;;;;;22.39;67.85;100948.88;5058333;28;45434;-74
2023/06/27 02:58:15;;;;;;;;;2.33;2.33;;;;;22.36;67.82;100940.91;5058595;28;45246;-75
2023/06/27 03:00:41;;;;;;;;;4.00;3.00;;;;;22.40;67.54;100951.53;5058187;28;45636;-74
2023/06/27 03:03:06;;;;;;;;;3.33;2.33;;;;;22.26;64.23;100945.47;5040157;28;45661;-74
2023/06/27 03:05:32;;;;;;;;;3.00;2.00;;;;;22.19;63.15;100935.78;5040145;28;45468;-75
2023/06/27 03:07:58;;;;;;;;;2.00;2.00;;;;;22.13;61.80;100949.16;5058412;28;45350;-75
2023/06/27 03:10:24;;;;;;;;;2.00;2.00;;;;;21.99;62.59;100931.56;5056820;28;45415;-75
2023/06/27 03:12:49;;;;;;;;;2.00;2.00;;;;;22.11;61.75;100953.59;5058026;28;45519;-75
2023/06/27 03:15:15;;;;;;;;;3.00;2.00;;;;;22.16;62.23;100950.00;5040119;28;45452;-75
2023/06/27 03:17:40;;;;;;;;;3.67;3.00;;;;;22.15;61.64;100947.34;5040181;28;45558;-74
2023/06/27 03:20:06;;;;;;;;;3.00;2.00;;;;;22.04;59.26;100953.69;5057788;28;46085;-75
2023/06/27 03:22:32;;;;;;;;;0.00;0.00;;;;;21.99;60.07;100947.50;5057950;28;45267;-75
2023/06/27 03:24:57;;;;;;;;;4.33;3.00;;;;;22.03;60.90;100941.25;5058270;28;45207;-75
2023/06/27 03:27:24;;;;;;;;;4.00;3.33;;;;;22.09;63.08;100937.66;5058607;28;45217;-76
2023/06/27 03:29:50;;;;;;;;;3.00;3.00;;;;;22.19;64.34;100943.75;5057612;28;46044;-75
2023/06/27 03:32:15;;;;;;;;;3.67;3.00;;;;;22.18;64.63;100950.88;5057403;28;45406;-75
2023/06/27 03:34:42;;;;;;;;;2.67;2.00;;;;;22.20;64.22;100940.19;5057593;28;45454;-75
2023/06/27 03:37:08;;;;;;;;;2.67;2.67;;;;;22.27;63.34;100947.22;5057708;28;45414;-75
2023/06/27 03:39:33;;;;;;;;;4.00;3.67;;;;;22.20;64.83;100940.19;5057348;28;46003;-75
2023/06/27 03:41:59;;;;;;;;;2.67;2.67;;;;;22.25;66.25;100954.34;5057992;28;45352;-75
2023/06/27 03:44:24;;;;;;;;;3.33;3.00;;;;;22.25;66.08;100941.06;5058103;28;45293;-75
2023/06/27 03:46:51;;;;;;;;;7.33;4.00;;;;;22.31;65.98;100950.75;5058141;28;45510;-76
2023/06/27 03:49:16;;;;;;;;;6.33;6.00;;;;;22.29;65.75;100949.88;5039376;28;47998;-76
2023/06/27 03:51:42;;;;;;;;;4.00;2.33;;;;;22.23;65.79;100953.47;5057319;28;45397;-75
2023/06/27 03:54:09;;;;;;;;;3.33;3.00;;;;;22.18;65.90;100948.19;5057703;28;45488;-75
2023/06/27 03:56:35;;;;;;;;;2.00;2.00;;;;;22.10;66.69;100952.69;5057804;28;45529;-75
2023/06/27 03:59:00;;;;;;;;;3.33;3.00;;;;;22.20;66.62;100948.16;5055847;28;46842;-76
2023/06/27 04:01:26;;;;;;;;;3.00;3.00;;;;;22.10;66.92;100958.03;5057623;28;45584;-75
2023/06/27 04:03:52;;;;;;;;;3.33;3.33;;;;;22.10;66.88;100954.50;5039460;28;45482;-74
2023/06/27 04:06:18;;;;;;;;;3.00;2.00;;;;;22.07;67.07;100954.53;5038415;28;45369;-75
2023/06/27 04:08:44;;;;;;;;;4.00;4.00;;;;;22.12;66.87;100958.00;5057215;28;45390;-74
2023/06/27 04:11:10;;;;;;;;;3.00;2.67;;;;;22.09;66.63;100952.75;5057223;28;45394;-75
2023/06/27 04:13:37;;;;;;;;;2.00;2.00;;;;;22.11;65.83;100964.25;5057352;28;45490;-75
2023/06/27 04:16:02;;;;;;;;;3.00;3.00;;;;;22.11;65.88;100958.94;5057494;28;45436;-75
2023/06/27 04:18:29;;;;;;;;;2.67;2.33;;;;;22.14;66.17;100966.84;5057040;28;45466;-74
2023/06/27 04:20:55;;;;;;;;;3.33;3.33;;;;;22.13;66.15;100957.13;5038910;28;45256;-75
2023/06/27 04:23:20;;;;;;;;;4.00;3.00;;;;;22.10;65.80;100946.50;5057100;28;45437;-75
2023/06/27 04:25:59;;;;;;;;;3.67;3.00;;;;;22.16;66.13;100954.41;5057271;28;45415;-74
2023/06/27 04:28:24;;;;;;;;;2.00;2.00;;;;;22.06;65.68;100943.00;5057015;28;45315;-74
2023/06/27 04:30:50;;;;;;;;;3.00;3.00;;;;;22.07;66.14;100955.41;5056736;28;45445;-74
2023/06/27 04:33:15;;;;;;;;;3.00;2.67;;;;;22.00;66.06;100951.03;5056975;28;45312;-74
2023/06/27 04:35:41;;;;;;;;;4.67;3.00;;;;;22.01;65.74;100948.38;5057236;28;45498;-74
2023/06/27 04:38:07;;;;;;;;;3.00;3.00;;;;;22.02;66.29;100959.88;5056702;28;46013;-74
2023/06/27 04:40:33;;;;;;;;;3.67;3.00;;;;;21.86;66.31;100951.19;5056943;28;45308;-75
2023/06/27 04:42:58;;;;;;;;;3.00;2.00;;;;;21.89;66.09;100959.16;5057210;28;45287;-74
2023/06/27 04:45:24;;;;;;;;;1.67;1.00;;;;;21.95;66.41;100960.88;5057084;28;45430;-75
2023/06/27 04:47:49;;;;;;;;;4.00;3.33;;;;;21.96;66.77;100958.16;5056422;28;45730;-74
2023/06/27 04:50:18;;;;;;;;;3.00;2.67;;;;;22.03;66.46;100954.56;5038393;28;45510;-74
2023/06/27 04:52:44;;;;;;;;;3.00;3.00;;;;;21.96;66.35;100959.97;5056666;28;45420;-74
2023/06/27 04:55:10;;;;;;;;;9.67;9.33;;;;;21.80;66.35;100952.13;5056622;28;45571;-74
2023/06/27 04:57:36;;;;;;;;;4.00;4.00;;;;;21.84;65.58;100963.63;5056289;28;46062;-75
2023/06/27 05:00:05;;;;;;;;;3.00;2.67;;;;;21.82;65.77;100957.44;5056719;28;45457;-74
2023/06/27 05:02:30;;;;;;;;;3.67;3.00;;;;;21.87;65.53;100962.72;5057208;28;45668;-74
2023/06/27 05:04:55;;;;;;;;;4.00;3.00;;;;;21.79;65.65;100955.69;5056868;28;45422;-74
2023/06/27 05:07:21;;;;;;;;;4.00;4.00;;;;;21.86;65.67;100953.84;5056708;28;46207;-74
2023/06/27 05:09:46;;;;;;;;;3.00;3.00;;;;;21.87;66.21;100958.28;5056380;28;45379;-74
2023/06/27 05:12:12;;;;;;;;;2.33;2.33;;;;;21.89;66.02;100953.81;5056277;28;45472;-74
2023/06/27 05:14:37;;;;;;;;;5.00;4.00;;;;;21.93;66.38;100968.84;5056269;28;45531;-74
2023/06/27 05:17:03;;;;;;;;;3.33;3.33;;;;;21.92;65.70;100953.78;5057497;28;45631;-74
2023/06/27 05:19:29;;;;;;;;;4.00;3.00;;;;;22.01;65.91;100960.81;5041750;28;45475;-74
2023/06/27 05:21:54;;;;;;;;;4.00;3.33;;;;;22.00;65.08;100959.03;5041938;28;45469;-74
2023/06/27 05:24:20;;;;;;;;;4.67;4.00;;;;;22.08;65.52;100957.16;5059987;28;45453;-74
2023/06/27 05:26:45;;;;;;;;;3.00;2.67;;;;;22.07;65.41;100967.84;5059747;28;46172;-75
2023/06/27 05:29:11;;;;;;;;;4.33;4.00;;;;;22.08;65.08;100953.63;5059673;28;45482;-75
2023/06/27 05:31:36;;;;;;;;;3.00;3.00;;;;;22.11;65.30;100962.47;5041493;28;45518;-74
2023/06/27 05:34:02;;;;;;;;;2.67;2.67;;;;;22.11;65.07;100965.13;5060221;28;45423;-75
2023/06/27 05:36:27;;;;;;;;;4.00;3.00;;;;;22.08;64.95;100948.31;5059367;28;45200;-75
2023/06/27 05:38:53;;;;;;;;;2.00;2.00;;;;;22.17;65.07;100962.38;5059403;28;45331;-75
2023/06/27 05:41:19;;;;;;;;;3.67;3.00;;;;;22.19;64.53;100957.94;5059660;28;45260;-75
2023/06/27 05:43:46;;;;;;;;;5.33;5.33;;;;;22.24;64.49;100961.47;5059763;28;45470;-75
2023/06/27 05:46:11;;;;;;;;;3.00;3.00;;;;;22.27;65.22;100957.88;5059376;28;45328;-75
2023/06/27 05:48:37;;;;;;;;;5.33;4.00;;;;;22.31;64.62;100948.09;5059789;28;45362;-76
2023/06/27 05:51:02;;;;;;;;;3.33;3.00;;;;;22.33;64.29;100941.84;5059875;28;45553;-75
2023/06/27 05:53:28;;;;;;;;;3.00;2.00;;;;;22.36;64.89;100946.22;5041809;28;45561;-75
2023/06/27 05:55:53;;;;;;;;;4.33;3.33;;;;;22.35;64.66;100940.03;5041382;28;47073;-75
2023/06/27 05:58:19;;;;;;;;;1.33;1.33;;;;;22.41;65.09;100955.94;5059260;28;45256;-75
2023/06/27 06:00:44;;;;;;;;;2.00;2.00;;;;;22.54;64.26;100951.34;5059203;28;45384;-75
2023/06/27 06:03:10;;;;;;;;;3.00;3.00;;;;;22.60;64.05;100945.94;5041360;28;45541;-75
2023/06/27 06:05:35;;;;;;;;;3.00;2.33;;;;;22.60;64.04;100948.59;5059384;28;45301;-75
2023/06/27 06:08:01;;;;;;;;;3.00;3.00;;;;;22.63;63.60;100945.88;5058501;28;45315;-75
2023/06/27 06:10:26;;;;;;;;;4.00;3.00;;;;;22.72;63.61;100944.88;5058946;28;45483;-74
2023/06/27 06:12:52;;;;;;;;;3.00;3.00;;;;;22.82;63.80;100948.31;5059152;28;45437;-75
2023/06/27 06:15:17;;;;;;;;;6.00;5.00;;;;;22.92;63.15;100949.03;5058949;28;46168;-74
2023/06/27 06:17:43;;;;;;;;;3.67;3.67;;;;;22.96;63.47;100956.06;5058947;28;45301;-75
2023/06/27 06:20:10;;;;;;;;;5.00;4.33;;;;;22.97;63.09;100939.19;5059117;28;45200;-75
2023/06/27 06:22:36;;;;;;;;;3.00;3.00;;;;;23.01;62.96;100930.25;5041198;28;45559;-74
2023/06/27 06:25:03;;;;;;;;;2.33;2.00;;;;;23.15;62.81;100938.06;5058642;28;45454;-74
2023/06/27 06:27:28;;;;;;;;;6.00;5.00;;;;;23.25;62.56;100931.69;5058334;28;45570;-75
2023/06/27 06:29:54;;;;;;;;;6.67;6.00;;;;;23.33;62.71;100934.22;5057536;28;45496;-75
2023/06/27 06:32:20;;;;;;;;;4.00;4.00;;;;;23.42;62.32;100936.75;5058821;28;45556;-75
2023/06/27 06:34:45;;;;;;;;;4.33;3.67;;;;;23.39;62.23;100928.78;5058562;28;45961;-74
2023/06/27 06:37:11;;;;;;;;;3.00;3.00;;;;;23.38;62.12;100925.25;5058498;28;45331;-75
2023/06/27 06:39:36;;;;;;;;;4.33;3.00;;;;;23.49;62.13;100926.84;5058622;28;45465;-75
2023/06/27 06:42:02;;;;;;;;;4.00;3.00;;;;;23.61;61.63;100926.63;5058203;28;45303;-74
2023/06/27 06:44:27;;;;;;;;;2.00;2.00;;;;;23.74;61.51;100928.16;5057769;28;45335;-75
2023/06/27 06:46:53;;;;;;;;;3.67;3.67;;;;;23.85;61.22;100938.66;5058263;28;45182;-74
2023/06/27 06:49:19;;;;;;;;;4.00;4.00;;;;;23.87;61.00;100922.63;5058395;28;45263;-75
2023/06/27 06:51:44;;;;;;;;;4.00;4.00;;;;;23.79;61.35;100904.97;5058559;28;45219;-74
2023/06/27 06:54:10;;;;;;;;;3.67;3.00;;;;;24.01;61.33;100933.91;5058051;28;45403;-75
2023/06/27 06:56:35;;;;;;;;;4.00;3.67;;;;;23.91;60.95;100913.66;5040408;28;45542;-75
2023/06/27 06:59:02;;;;;;;;;4.67;3.67;;;;;24.01;61.25;100928.56;5058300;28;45366;-74
2023/06/27 07:01:28;;;;;;;;;4.33;4.33;;;;;24.07;60.81;100941.78;5058375;28;45300;-74
2023/06/27 07:03:54;;;;;;;;;4.33;3.33;;;;;23.98;60.86;100929.53;5057547;28;45497;-75
2023/06/27 07:06:20;;;;;;;;;2.33;2.33;;;;;24.07;60.55;100931.13;5057669;28;45537;-74
2023/06/27 07:08:45;;;;;;;;;3.00;3.00;;;;;24.06;60.23;100923.16;5056758;28;45509;-75
2023/06/27 07:11:11;;;;;;;;;3.33;3.33;;;;;24.22;60.24;100921.94;5058337;28;45457;-75
2023/06/27 07:13:36;;;;;;;;;4.00;3.00;;;;;24.29;60.07;100931.59;5040157;28;47614;-74
2023/06/27 07:16:02;;;;;;;;;4.67;4.00;;;;;24.42;59.89;100927.72;5039738;28;45439;-75
2023/06/27 07:18:27;;;;;;;;;3.33;3.00;;;;;24.55;59.73;100939.06;5057863;28;45239;-75
2023/06/27 07:20:53;;;;;;;;;2.33;2.00;;;;;24.61;59.15;100932.69;5057786;28;45488;-75
2023/06/27 07:23:18;;;;;;;;;5.33;3.00;;;;;24.68;58.86;100939.69;5057759;28;45482;-75
2023/06/27 07:25:44;;;;;;;;;3.67;3.00;;;;;24.77;58.61;100933.22;5057320;28;45609;-75
2023/06/27 07:28:10;;;;;;;;;4.33;3.67;;;;;24.85;58.12;100941.06;5058094;28;45269;-75
2023/06/27 07:30:35;;;;;;;;;5.33;4.00;;;;;24.86;56.90;100942.84;5057574;28;45228;-75
2023/06/27 07:33:01;;;;;;;;;3.00;3.00;;;;;24.68;57.34;100936.13;5057441;28;45943;-74
2023/06/27 07:35:28;;;;;;;;;3.33;3.00;;;;;24.73;57.58;100935.13;5055788;28;45315;-75
2023/06/27 07:37:54;;;;;;;;;3.00;3.00;;;;;24.83;57.34;100940.22;5057740;28;45351;-75
2023/06/27 07:40:20;;;;;;;;;4.00;4.00;;;;;24.81;57.33;100929.59;5057511;28;45277;-76
2023/06/27 07:42:45;;;;;;;;;3.67;3.00;;;;;24.92;57.38;100932.88;5057038;28;45449;-74
2023/06/27 07:45:11;;;;;;;;;3.33;3.33;;;;;25.00;56.99;100930.03;5057691;28;45332;-78
2023/06/27 07:47:36;;;;;;;;;3.00;3.00;;;;;25.20;56.15;100940.25;5057291;28;45416;-75
2023/06/27 07:50:02;;;;;;;;;3.00;3.00;;;;;25.17;56.54;100937.66;5052355;28;45458;-74
2023/06/27 07:52:28;;;;;;;;;4.00;3.33;;;;;25.22;56.95;100943.78;5056000;28;45996;-75
2023/06/27 07:54:53;;;;;;;;;3.00;3.00;;;;;25.33;56.47;100939.06;5055795;28;45438;-75
2023/06/27 07:57:19;;;;;;;;;4.00;4.00;;;;;25.39;56.23;100930.91;5054814;28;45442;-76
2023/06/27 07:59:45;;;;;;;;;4.00;4.00;;;;;25.49;55.97;100922.66;5056460;28;45549;-78
2023/06/27 08:02:10;;;;;;;;;4.00;3.00;;;;;25.72;55.68;100946.09;5054564;28;46611;-76
2023/06/27 08:04:36;;;;;;;;;4.00;3.00;;;;;25.85;55.73;100942.19;5050898;28;45539;-77
2023/06/27 08:07:01;;;;;;;;;4.00;4.00;;;;;25.85;55.69;100939.50;5056064;28;45602;-76
2023/06/27 08:09:27;;;;;;;;;3.67;3.00;;;;;25.95;54.85;100937.50;5055551;28;45645;-76
2023/06/27 08:11:54;;;;;;;;;4.67;3.67;;;;;25.99;54.30;100947.19;5055553;28;45480;-76
2023/06/27 08:14:19;;;;;;;;;4.00;4.00;;;;;26.13;54.86;100947.69;5056306;28;45422;-76
2023/06/27 08:16:45;;;;;;;;;4.00;3.33;;;;;26.20;54.28;100943.03;5056998;28;45403;-77
2023/06/27 08:19:11;;;;;;;;;4.33;3.67;;;;;26.35;53.48;100947.94;5055409;28;46923;-75
2023/06/27 08:21:36;;;;;;;;;3.00;3.00;;;;;26.25;50.65;100942.91;5055670;28;46262;-78
2023/06/27 08:24:03;;;;;;;;;4.33;2.00;;;;;26.27;50.86;100949.09;5056388;28;45299;-76
2023/06/27 08:26:28;;;;;;;;;7.00;7.00;;;;;26.26;50.95;100948.22;5056936;28;45426;-76
2023/06/27 08:28:54;;;;;;;;;3.67;3.00;;;;;26.33;50.21;100948.91;5056928;28;45185;-77
2023/06/27 08:31:20;;;;;;;;;4.00;3.33;;;;;26.34;49.77;100934.59;5054902;28;45871;-76
2023/06/27 08:33:45;;;;;;;;;6.67;6.67;;;;;26.34;49.96;100940.84;5056396;28;45573;-76
2023/06/27 08:36:11;;;;;;;;;4.00;3.00;;;;;26.18;49.28;100923.44;5056918;28;45438;-78
2023/06/27 08:38:37;;;;;;;;;2.33;2.33;;;;;26.02;50.63;100888.19;5055122;28;45557;-77
2023/06/27 08:41:03;;;;;;;;;8.00;4.67;;;;;26.43;49.42;100945.03;5056182;28;45423;-77
2023/06/27 08:43:29;;;;;;;;;3.33;3.33;;;;;26.36;49.24;100946.13;5056115;28;45426;-77
2023/06/27 08:45:55;;;;;;;;;4.67;4.33;;;;;26.34;49.19;100938.16;5055819;28;45509;-77
2023/06/27 08:48:21;;;;;;;;;4.00;3.00;;;;;26.48;49.52;100936.84;5056515;28;45286;-77
2023/06/27 08:50:53;;;;;;;;;3.33;3.33;;;;;26.31;48.54;100935.56;5054613;28;46133;-76
2023/06/27 08:53:25;;;;;;;;;6.00;4.00;;;;;26.29;48.62;100940.09;5057028;28;45417;-77
2023/06/27 08:56:10;;;;;;;;;6.67;5.00;;;;;26.51;49.13;100936.78;5058490;28;45434;-77
2023/06/27 08:58:47;;;;;;;;;4.33;3.67;;;;;26.57;48.00;100932.09;5057997;28;45460;-76
2023/06/27 09:01:13;;;;;;;;;4.00;3.00;;;;;26.64;48.22;100916.78;5059803;28;45397;-77
2023/06/27 09:03:39;;;;;;;;;4.67;4.00;;;;;26.73;47.63;100929.00;5059744;28;45422;-76
2023/06/27 09:06:06;;;;;;;;;4.33;3.00;;;;;26.61;48.07;100894.53;5059947;28;45358;-77
2023/06/27 09:08:36;;;;;;;;;5.00;2.33;;;;;26.76;47.26;100927.09;5058776;28;45525;-78
2023/06/27 09:11:03;;;;;;;;;3.00;3.00;;;;;26.56;48.01;100930.38;5059235;28;45533;-77
2023/06/27 09:13:30;;;;;;;;;3.00;3.00;;;;;26.53;47.30;100924.22;5057762;28;45513;-76
2023/06/27 09:15:55;;;;;;;;;3.33;3.33;;;;;26.61;47.57;100919.53;5059685;28;45494;-77
2023/06/27 09:18:21;;;;;;;;;4.33;4.00;;;;;26.59;47.97;100938.31;5059568;28;45469;-77
2023/06/27 09:20:47;;;;;;;;;4.00;3.00;;;;;26.64;47.44;100934.63;5058879;28;46030;-77
2023/06/27 09:23:15;;;;;;;;;3.33;3.00;;;;;26.78;47.21;100925.25;5058968;28;45316;-78
2023/06/27 09:25:41;;;;;;;;;5.00;4.00;;;;;26.97;47.18;100941.63;5058843;28;45467;-76
2023/06/27 09:28:17;;;;;;;;;5.33;4.33;;;;;26.85;46.72;100911.66;5059473;28;45326;-77
2023/06/27 09:30:54;;;;;;;;;4.33;4.33;;;;;26.65;47.44;100915.81;5058429;28;45510;-77
2023/06/27 09:33:19;;;;;;;;;5.00;4.67;;;;;26.87;47.04;100934.78;5059138;28;45346;-76
2023/06/27 09:35:45;;;;;;;;;4.00;4.00;;;;;27.03;46.92;100926.28;5059200;28;45389;-77
2023/06/27 09:38:11;;;;;;;;;7.33;5.00;;;;;27.33;47.53;100938.69;5059053;28;45224;-77
2023/06/27 09:40:37;;;;;;;;;3.33;3.00;;;;;27.54;46.81;100931.72;5058688;28;45561;-77
2023/06/27 09:43:06;;;;;;;;;5.67;4.00;;;;;27.71;46.59;100935.63;5058238;28;45532;-76
2023/06/27 09:45:32;;;;;;;;;4.67;4.00;;;;;28.09;46.58;100926.25;5058607;28;45551;-77
2023/06/27 09:48:02;;;;;;;;;5.00;3.67;;;;;28.27;45.21;100915.72;5059533;28;45460;-78
2023/06/27 09:50:31;;;;;;;;;4.00;4.00;;;;;28.24;45.70;100930.16;5059568;28;45511;-77
2023/06/27 09:53:05;;;;;;;;;4.00;4.00;;;;;28.24;45.16;100929.28;5059425;28;45452;-76
2023/06/27 09:55:31;;;;;;;;;4.67;4.00;;;;;28.15;45.46;100938.53;5058283;28;45324;-77
2023/06/27 09:57:57;;;;;;;;;4.67;4.00;;;;;28.11;45.42;100936.91;5059532;28;45472;-76
2023/06/27 10:00:26;;;;;;;;;5.33;4.33;;;;;27.92;46.09;100921.47;5058500;28;45503;-77
2023/06/27 10:02:52;;;;;;;;;5.67;4.00;;;;;28.06;46.19;100922.78;5057599;28;45276;-76
2023/06/27 10:05:22;;;;;;;;;7.00;5.00;;;;;28.12;46.07;100930.63;5057500;28;45351;-77
2023/06/27 10:07:50;;;;;;;;;6.00;5.67;;;;;28.41;45.99;100924.16;5057663;28;45303;-77
2023/06/27 10:10:16;;;;;;;;;5.33;5.33;;;;;28.91;45.16;100928.50;5058286;28;45517;-77
2023/06/27 10:12:43;;;;;;;;;5.00;4.00;;;;;29.28;44.79;100924.31;5056926;28;45394;-77
2023/06/27 10:15:10;;;;;;;;;4.00;4.00;;;;;29.35;44.14;100915.91;5058430;28;45345;-77
2023/06/27 10:17:37;;;;;;;;;5.00;4.00;;;;;29.40;44.59;100910.34;5057406;28;45344;-78
2023/06/27 10:20:07;;;;;;;;;8.00;7.00;;;;;29.46;44.24;100912.75;5056761;28;47714;-76
2023/06/27 10:22:35;;;;;;;;;6.00;5.67;;;;;29.52;44.36;100911.63;5058252;28;45461;-76
2023/06/27 10:25:11;;;;;;;;;7.00;6.00;;;;;29.71;43.75;100923.38;5057208;28;45330;-78
2023/06/27 10:27:38;;;;;;;;;6.67;5.33;;;;;29.76;44.68;100919.59;5062702;28;45362;-77
2023/06/27 10:30:26;;;;;;;;;8.67;7.00;;;;;29.92;44.08;100916.19;5061709;28;46111;-77
2023/06/27 10:33:09;;;;;;;;;7.67;6.33;;;;;30.37;43.34;100918.69;5058721;28;45488;-76
2023/06/27 10:35:45;;;;;;;;;6.67;6.00;;;;;30.54;43.12;100916.06;5058667;28;45488;-76
2023/06/27 10:38:18;;;;;;;;;5.33;5.33;;;;;30.38;42.89;100920.41;5058656;28;45244;-77
2023/06/27 10:40:57;;;;;;;;;7.00;7.00;;;;;30.36;42.88;100931.25;5056703;28;47538;-78
2023/06/27 10:43:39;;;;;;;;;10.67;7.00;;;;;30.36;42.73;100916.91;5058424;28;45241;-76
2023/06/27 10:46:10;;;;;;;;;8.33;7.33;;;;;30.33;41.97;100916.13;5058420;28;45464;-78
2023/06/27 10:48:48;;;;;;;;;7.00;5.33;;;;;30.61;42.71;100909.41;5058549;28;45544;-77
2023/06/27 10:51:19;;;;;;;;;7.00;7.00;;;;;30.92;42.36;100916.94;5058035;28;46130;-76
2023/06/27 10:54:07;;;;;;;;;8.00;6.00;;;;;30.93;42.60;100912.41;5058284;28;45524;-77
2023/06/27 10:56:41;;;;;;;;;7.67;6.00;;;;;31.01;42.84;100896.72;5056738;28;45331;-76
2023/06/27 10:59:18;;;;;;;;;7.33;6.67;;;;;31.24;42.51;100910.88;5058554;28;45473;-77
2023/06/27 11:01:59;;;;;;;;;8.00;6.00;;;;;31.42;41.62;100900.97;5058145;28;46100;-77
2023/06/27 11:04:40;;;;;;;;;8.00;7.00;;;;;31.21;41.10;100894.84;5058074;28;45443;-77
2023/06/27 11:07:12;;;;;;;;;6.00;5.67;;;;;31.08;41.43;100892.75;5057006;28;45257;-78
2023/06/27 11:09:37;;;;;;;;;9.00;9.00;;;;;30.87;41.74;100899.19;5058475;28;45375;-77
2023/06/27 11:12:15;;;;;;;;;7.33;6.33;;;;;31.00;42.75;100900.38;5056413;28;47840;-76
2023/06/27 11:14:43;;;;;;;;;8.67;7.00;;;;;31.20;42.35;100887.72;5056033;28;45341;-77
2023/06/27 11:17:09;;;;;;;;;6.00;5.33;;;;;31.47;42.10;100896.22;5057994;28;45537;-77
2023/06/27 11:19:37;;;;;;;;;7.00;7.00;;;;;31.59;41.15;100894.72;5056082;28;45389;-77
2023/06/27 11:22:03;;;;;;;;;5.00;5.00;;;;;31.47;41.85;100886.28;5072788;28;46774;-77
2023/06/27 11:24:32;;;;;;;;;7.00;6.33;;;;;31.39;41.69;100891.19;5073157;27;45259;-77